Time;durP1;ratioP1;P1;durP2;ratioP2;P2;SDS_P1;SDS_P2;PMS_P1;PMS_P2;Temp;Humidity;BMP_temperature;BMP_pressure;BME280_temperature;BME280_humidity;BME280_pressure;Samples;Min_cycle;Max_cycle;Signal;HPM_P1;HPM_P2
2023/03/12 00:02:02;;;;;;;11.25;2.28;;;26.20;99.90;;;;;;5032317;28;20203;-75
2023/03/12 00:04:35;;;;;;;7.85;2.13;;;26.30;99.90;;;;;;5032242;28;20202;-77
2023/03/12 00:07:08;;;;;;;7.03;2.00;;;26.20;99.90;;;;;;5034908;28;20187;-77
2023/03/12 00:09:40;;;;;;;4.35;1.73;;;26.30;99.90;;;;;;5033731;28;20654;-76
2023/03/12 00:12:11;;;;;;;8.18;2.78;;;26.30;99.90;;;;;;5034478;28;20229;-76
2023/03/12 00:14:44;;;;;;;6.47;2.03;;;26.30;99.90;;;;;;5034425;28;20629;-77
2023/03/12 00:17:15;;;;;;;9.27;4.60;;;26.40;99.90;;;;;;5034442;28;20194;-76
2023/03/12 00:19:46;;;;;;;10.15;2.28;;;26.50;99.90;;;;;;5032713;28;20217;-77
2023/03/12 00:22:21;;;;;;;9.07;3.75;;;26.60;99.90;;;;;;5033375;28;20198;-76
2023/03/12 00:24:54;;;;;;;4.72;2.13;;;26.50;99.90;;;;;;5034263;28;20192;-76
2023/03/12 00:27:26;;;;;;;10.77;2.28;;;26.50;99.90;;;;;;5031272;28;20194;-79
2023/03/12 00:29:57;;;;;;;6.10;2.10;;;26.50;99.90;;;;;;5031402;28;20641;-78
2023/03/12 00:32:29;;;;;;;4.72;1.83;;;26.50;99.90;;;;;;5031813;28;20230;-79
2023/03/12 00:35:02;;;;;;;8.75;1.80;;;26.50;99.90;;;;;;5026530;28;20727;-78
2023/03/12 00:37:35;;;;;;;5.72;1.92;;;26.50;99.90;;;;;;5028979;28;20194;-79
2023/03/12 00:40:08;;;;;;;6.22;2.00;;;26.40;99.90;;;;;;5030486;28;20206;-78
2023/03/12 00:42:39;;;;;;;8.82;2.00;;;26.50;99.90;;;;;;5031987;28;20198;-77
2023/03/12 00:45:11;;;;;;;7.93;2.13;;;26.80;99.90;;;;;;5031898;28;20202;-78
2023/03/12 00:47:42;;;;;;;6.43;2.40;;;26.90;99.90;;;;;;5033629;28;20649;-81
2023/03/12 00:50:13;;;;;;;7.28;1.95;;;26.90;99.90;;;;;;5029577;28;20289;-78
2023/03/12 00:52:47;;;;;;;5.28;1.92;;;26.80;99.90;;;;;;5030122;28;20218;-80
2023/03/12 00:55:18;;;;;;;4.55;2.40;;;26.60;99.90;;;;;;5031273;28;20560;-77
2023/03/12 00:57:49;;;;;;;9.35;4.53;;;26.50;99.90;;;;;;5030695;28;20205;-76
2023/03/12 01:00:20;;;;;;;9.05;3.17;;;26.40;99.90;;;;;;5029649;28;20195;-78
2023/03/12 01:02:51;;;;;;;7.00;2.25;;;26.20;99.90;;;;;;5033600;28;20209;-79
2023/03/12 01:05:22;;;;;;;8.30;2.30;;;26.10;99.90;;;;;;5028609;28;20198;-78
2023/03/12 01:07:55;;;;;;;6.15;1.83;;;26.20;99.90;;;;;;5031396;28;20708;-79
2023/03/12 01:10:27;;;;;;;7.15;2.03;;;26.20;99.90;;;;;;5032974;28;20559;-77
2023/03/12 01:12:58;;;;;;;6.25;2.15;;;26.10;99.90;;;;;;5030262;28;20229;-78
2023/03/12 01:15:29;;;;;;;8.68;2.08;;;26.00;99.90;;;;;;5030111;28;20202;-78
2023/03/12 01:18:01;;;;;;;6.90;2.03;;;26.10;99.90;;;;;;5031177;28;20205;-77
2023/03/12 01:20:33;;;;;;;5.75;2.35;;;26.40;99.90;;;;;;5031077;28;20209;-75
2023/03/12 01:23:07;;;;;;;4.05;1.90;;;26.60;99.90;;;;;;5031041;28;20680;-77
2023/03/12 01:25:38;;;;;;;6.18;1.95;;;26.70;99.90;;;;;;5032315;28;20210;-77
2023/03/12 01:28:10;;;;;;;7.90;1.95;;;26.90;99.90;;;;;;5028905;28;20245;-79
2023/03/12 01:30:41;;;;;;;7.82;1.95;;;27.00;99.90;;;;;;5030890;28;20202;-77
2023/03/12 01:33:12;;;;;;;7.43;1.90;;;27.00;99.90;;;;;;5032690;28;20237;-76
2023/03/12 01:35:44;;;;;;;6.22;2.10;;;26.70;99.90;;;;;;5031380;28;20198;-81
2023/03/12 01:38:19;;;;;;;6.75;2.10;;;26.60;99.90;;;;;;5030780;28;20589;-78
2023/03/12 01:40:50;;;;;;;5.78;1.80;;;26.60;99.90;;;;;;5031255;28;20661;-78
2023/03/12 01:43:34;;;;;;;7.72;2.03;;;26.70;99.90;;;;;;5033074;28;20222;-77
2023/03/12 01:46:19;;;;;;;8.23;2.05;;;26.60;99.90;;;;;;5033490;28;20201;-76
2023/03/12 01:48:56;;;;;;;7.10;1.92;;;26.60;99.90;;;;;;5035331;28;20202;-78
2023/03/12 01:51:29;;;;;;;7.50;2.03;;;26.50;99.90;;;;;;5029720;28;20197;-81
2023/03/12 01:54:06;;;;;;;6.00;1.95;;;26.80;99.90;;;;;;5034086;28;22011;-77
2023/03/12 01:56:39;;;;;;;6.35;2.00;;;26.80;99.90;;;;;;5032505;28;20201;-78
2023/03/12 01:59:15;;;;;;;4.97;2.03;;;26.90;99.90;;;;;;5035315;28;20201;-76
2023/03/12 02:01:47;;;;;;;6.88;1.92;;;27.00;99.90;;;;;;5035858;28;20201;-77
2023/03/12 02:04:20;;;;;;;8.13;1.95;;;27.00;99.90;;;;;;5021894;28;20557;-79
2023/03/12 02:06:56;;;;;;;6.07;2.10;;;27.10;99.90;;;;;;5035425;28;20577;-77
2023/03/12 02:09:29;;;;;;;6.10;1.80;;;27.00;99.90;;;;;;5033894;28;20205;-77
2023/03/12 02:12:00;;;;;;;6.75;2.20;;;27.20;99.90;;;;;;5033494;28;20214;-75
2023/03/12 02:14:31;;;;;;;7.55;1.92;;;27.30;99.90;;;;;;5034488;28;20206;-80
2023/03/12 02:17:02;;;;;;;4.22;1.80;;;27.30;99.90;;;;;;5030720;28;20206;-78
2023/03/12 02:19:41;;;;;;;7.35;1.92;;;27.10;99.90;;;;;;5030187;28;20555;-78
2023/03/12 02:22:14;;;;;;;6.80;2.13;;;27.00;99.90;;;;;;5033118;28;20205;-78
2023/03/12 02:24:50;;;;;;;7.53;1.98;;;27.00;99.90;;;;;;5034226;28;20194;-78
2023/03/12 02:27:24;;;;;;;8.77;2.08;;;27.10;99.90;;;;;;5017944;28;20195;-75
2023/03/12 02:29:56;;;;;;;5.38;1.90;;;27.00;99.90;;;;;;5035846;28;20223;-81
2023/03/12 02:32:32;;;;;;;8.10;2.05;;;27.00;99.90;;;;;;5050993;22;20244;-77
2023/03/12 02:35:05;;;;;;;6.40;2.25;;;26.80;99.90;;;;;;5048803;28;20208;-77
2023/03/12 02:37:36;;;;;;;10.18;2.47;;;26.60;99.90;;;;;;5036158;28;20525;-79
2023/03/12 02:40:15;;;;;;;8.95;2.10;;;26.50;99.90;;;;;;5052500;28;20287;-77
2023/03/12 02:42:49;;;;;;;7.95;2.13;;;26.70;99.90;;;;;;5055952;28;20201;-77
2023/03/12 02:45:21;;;;;;;7.63;2.50;;;26.80;99.90;;;;;;5065645;28;20189;-79
2023/03/12 02:47:52;;;;;;;4.53;1.98;;;26.80;99.90;;;;;;5063425;28;20201;-77
2023/03/12 02:50:23;;;;;;;12.15;1.95;;;26.90;99.90;;;;;;5055961;28;20190;-80
2023/03/12 02:52:54;;;;;;;5.35;1.88;;;26.80;99.90;;;;;;5055199;28;20209;-76
2023/03/12 02:55:27;;;;;;;9.77;2.28;;;27.00;99.90;;;;;;5054729;28;20198;-78
2023/03/12 02:58:01;;;;;;;6.25;1.77;;;26.80;99.90;;;;;;5055764;28;20720;-78
2023/03/12 03:00:32;;;;;;;7.65;2.08;;;26.80;99.90;;;;;;5049986;28;20292;-84
2023/03/12 03:03:03;;;;;;;6.93;2.20;;;26.70;99.90;;;;;;5052043;28;20640;-82
2023/03/12 03:05:36;;;;;;;7.00;1.73;;;26.70;99.90;;;;;;5055479;28;20555;-79
2023/03/12 03:08:08;;;;;;;8.93;1.80;;;26.70;99.90;;;;;;5055520;28;20641;-82
2023/03/12 03:10:39;;;;;;;5.18;1.80;;;26.70;99.90;;;;;;5055461;28;20205;-78
2023/03/12 03:13:12;;;;;;;5.10;1.60;;;26.60;99.90;;;;;;5055445;28;20232;-79
2023/03/12 03:15:43;;;;;;;7.57;2.03;;;26.60;99.90;;;;;;5055750;28;20201;-78
2023/03/12 03:18:14;;;;;;;11.48;2.17;;;26.70;99.90;;;;;;5047852;28;20194;-80
2023/03/12 03:20:45;;;;;;;7.72;1.83;;;26.70;99.90;;;;;;5035320;28;20197;-79
2023/03/12 03:23:16;;;;;;;6.75;2.03;;;26.80;99.90;;;;;;5035574;28;20191;-78
2023/03/12 03:25:48;;;;;;;5.20;1.90;;;26.90;99.90;;;;;;5035253;28;20187;-78
2023/03/12 03:28:21;;;;;;;6.07;1.83;;;27.00;99.90;;;;;;5035434;28;20660;-77
2023/03/12 03:30:56;;;;;;;8.57;1.80;;;26.90;99.90;;;;;;5052293;28;20190;-79
2023/03/12 03:33:28;;;;;;;7.40;2.00;;;26.80;99.90;;;;;;5054639;28;20233;-76
2023/03/12 03:36:00;;;;;;;6.93;1.98;;;27.00;99.90;;;;;;5055164;28;20202;-78
2023/03/12 03:38:32;;;;;;;7.28;1.90;;;26.90;99.90;;;;;;5054062;28;20189;-77
2023/03/12 03:41:03;;;;;;;9.13;2.08;;;26.90;99.90;;;;;;5048531;28;20194;-78
2023/03/12 03:43:36;;;;;;;11.48;2.45;;;27.00;99.90;;;;;;5050885;28;20202;-77
2023/03/12 03:46:08;;;;;;;9.88;2.17;;;26.90;99.90;;;;;;5064604;28;20204;-77
2023/03/12 03:48:39;;;;;;;9.68;2.33;;;26.80;99.90;;;;;;5064035;28;20656;-78
2023/03/12 03:51:11;;;;;;;5.65;1.80;;;27.00;99.90;;;;;;5053574;28;20652;-79
2023/03/12 03:53:42;;;;;;;5.63;2.10;;;27.00;99.90;;;;;;5054084;28;20249;-77
2023/03/12 03:56:15;;;;;;;8.15;1.90;;;26.90;99.90;;;;;;5053163;28;20189;-77
2023/03/12 03:58:48;;;;;;;7.80;2.20;;;26.80;99.90;;;;;;5038346;28;20193;-77
2023/03/12 04:01:19;;;;;;;16.33;11.75;;;26.60;99.90;;;;;;5053940;28;20220;-78
2023/03/12 04:03:50;;;;;;;8.27;3.10;;;26.60;99.90;;;;;;5063162;28;20198;-78
2023/03/12 04:06:22;;;;;;;6.40;2.03;;;26.70;99.90;;;;;;5051443;28;20204;-76
2023/03/12 04:08:55;;;;;;;7.75;1.95;;;26.70;99.90;;;;;;5054221;28;20799;-80
2023/03/12 04:11:26;;;;;;;5.85;1.75;;;26.80;99.90;;;;;;5053104;28;20224;-77
2023/03/12 04:14:00;;;;;;;7.13;1.98;;;26.90;99.90;;;;;;5054155;28;20217;-77
2023/03/12 04:16:31;;;;;;;9.40;2.20;;;26.90;99.90;;;;;;5052841;28;20201;-78
2023/03/12 04:19:02;;;;;;;4.45;1.92;;;26.80;99.90;;;;;;5053530;28;20205;-78
2023/03/12 04:21:33;;;;;;;8.07;1.90;;;26.60;99.90;;;;;;5037856;28;20186;-77
2023/03/12 04:24:04;;;;;;;8.00;1.92;;;26.50;99.90;;;;;;5053523;28;20280;-77
2023/03/12 04:26:35;;;;;;;4.70;2.00;;;26.50;99.90;;;;;;5055712;28;20198;-79
2023/03/12 04:29:10;;;;;;;8.65;2.10;;;26.40;99.90;;;;;;5054267;28;20196;-77
2023/03/12 04:31:41;;;;;;;15.95;2.00;;;26.50;99.90;;;;;;5053219;28;20200;-79
2023/03/12 04:34:12;;;;;;;10.13;2.10;;;26.40;99.90;;;;;;5054058;28;20667;-76
2023/03/12 04:36:44;;;;;;;7.35;1.83;;;26.40;99.90;;;;;;5053726;28;20667;-78
2023/03/12 04:39:15;;;;;;;7.28;1.88;;;26.30;99.90;;;;;;5053482;28;20190;-79
2023/03/12 04:41:46;;;;;;;6.72;1.92;;;26.10;99.90;;;;;;5053562;28;20193;-77
2023/03/12 04:44:19;;;;;;;6.95;2.10;;;26.00;99.90;;;;;;5055969;28;20235;-79
2023/03/12 04:46:50;;;;;;;8.07;2.00;;;25.90;99.90;;;;;;5064597;28;20198;-78
2023/03/12 04:49:21;;;;;;;10.18;2.20;;;25.90;99.90;;;;;;5053895;28;20636;-76
2023/03/12 04:51:52;;;;;;;5.55;1.70;;;25.80;99.90;;;;;;5053686;28;20190;-78
2023/03/12 04:54:23;;;;;;;5.15;1.98;;;25.70;99.90;;;;;;5052992;28;20575;-75
2023/03/12 04:56:54;;;;;;;5.65;1.88;;;25.60;99.90;;;;;;5053060;28;20205;-79
2023/03/12 04:59:27;;;;;;;6.93;1.70;;;25.50;99.90;;;;;;5053618;28;20186;-80
2023/03/12 05:01:58;;;;;;;7.25;1.98;;;25.40;99.90;;;;;;5050622;28;20182;-78
2023/03/12 05:04:29;;;;;;;8.68;2.58;;;25.40;99.90;;;;;;5072805;28;20200;-79
2023/03/12 05:07:01;;;;;;;7.30;2.20;;;25.40;99.90;;;;;;5073452;28;20667;-77
2023/03/12 05:09:32;;;;;;;5.65;2.20;;;25.50;99.90;;;;;;5068964;28;20196;-80
2023/03/12 05:12:03;;;;;;;6.38;2.10;;;25.40;99.90;;;;;;5057721;28;20185;-79
2023/03/12 05:14:38;;;;;;;6.93;1.85;;;25.40;99.90;;;;;;5070056;28;20209;-80
2023/03/12 05:17:09;;;;;;;8.20;2.53;;;25.40;99.90;;;;;;5033243;28;20192;-79
2023/03/12 05:19:40;;;;;;;6.88;2.15;;;25.30;99.90;;;;;;5067800;28;20190;-78
2023/03/12 05:22:11;;;;;;;8.35;1.52;;;25.30;99.90;;;;;;5073354;28;20200;-77
2023/03/12 05:24:42;;;;;;;7.65;1.88;;;25.20;99.90;;;;;;5073006;28;20196;-79
2023/03/12 05:27:13;;;;;;;5.00;1.70;;;25.20;99.90;;;;;;5073163;28;20196;-78
2023/03/12 05:29:46;;;;;;;11.70;1.92;;;25.20;99.90;;;;;;5060449;28;20193;-79
2023/03/12 05:32:17;;;;;;;6.65;1.90;;;25.20;99.90;;;;;;5053036;28;20240;-77
2023/03/12 05:34:48;;;;;;;6.30;2.10;;;25.20;99.90;;;;;;5068835;28;20221;-79
2023/03/12 05:37:19;;;;;;;8.13;2.08;;;25.30;99.90;;;;;;5050522;28;20197;-78
2023/03/12 05:39:50;;;;;;;9.52;1.95;;;25.30;99.90;;;;;;5053331;28;20198;-78
2023/03/12 05:42:21;;;;;;;11.73;2.42;;;25.30;99.90;;;;;;5052936;28;20197;-80
2023/03/12 05:44:54;;;;;;;7.97;2.05;;;25.30;99.90;;;;;;5051895;28;20209;-79
2023/03/12 05:47:26;;;;;;;10.25;2.33;;;25.20;99.90;;;;;;5053313;28;20201;-80
2023/03/12 05:49:57;;;;;;;9.63;2.15;;;25.20;99.90;;;;;;5055860;28;20204;-77
2023/03/12 05:52:28;;;;;;;8.65;1.92;;;25.10;99.90;;;;;;5055311;28;20625;-79
2023/03/12 05:54:59;;;;;;;7.90;2.10;;;25.10;99.90;;;;;;5051700;28;20645;-79
2023/03/12 05:57:30;;;;;;;6.05;1.83;;;25.00;99.90;;;;;;5053000;28;20196;-79
2023/03/12 06:00:03;;;;;;;6.38;1.80;;;25.00;99.90;;;;;;5055453;28;20193;-78
2023/03/12 06:02:34;;;;;;;6.05;1.90;;;24.90;99.90;;;;;;5044196;28;20197;-78
2023/03/12 06:05:08;;;;;;;7.10;2.00;;;24.80;99.90;;;;;;5050303;28;20189;-79
2023/03/12 06:07:50;;;;;;;10.57;2.10;;;24.70;99.90;;;;;;5047958;28;20258;-79
2023/03/12 06:10:22;;;;;;;7.53;2.08;;;24.60;99.90;;;;;;5048275;28;20208;-79
2023/03/12 06:12:54;;;;;;;6.85;1.90;;;24.60;99.90;;;;;;5049968;28;20197;-78
2023/03/12 06:15:28;;;;;;;8.70;2.10;;;24.60;99.90;;;;;;5051328;28;20193;-78
2023/03/12 06:18:01;;;;;;;7.57;2.08;;;24.60;99.90;;;;;;5050012;28;20284;-78
2023/03/12 06:20:32;;;;;;;5.88;1.98;;;24.60;99.90;;;;;;5048842;28;20197;-80
2023/03/12 06:23:03;;;;;;;6.85;1.95;;;24.60;99.90;;;;;;5047030;28;20687;-79
2023/03/12 06:25:34;;;;;;;11.25;2.28;;;24.60;99.90;;;;;;5051445;28;20205;-79
2023/03/12 06:28:05;;;;;;;7.45;2.08;;;24.60;99.90;;;;;;5050174;28;20194;-77
2023/03/12 06:30:38;;;;;;;6.15;2.13;;;24.50;99.90;;;;;;5054054;28;20645;-78
2023/03/12 06:33:09;;;;;;;4.72;1.95;;;24.50;99.90;;;;;;5052323;28;20688;-78
2023/03/12 06:35:40;;;;;;;9.02;2.25;;;24.50;99.90;;;;;;5052132;28;20205;-78
2023/03/12 06:38:12;;;;;;;8.55;2.10;;;24.50;99.90;;;;;;5045576;28;20202;-76
2023/03/12 06:40:43;;;;;;;6.40;2.17;;;24.50;99.90;;;;;;5052436;28;20201;-79
2023/03/12 06:43:14;;;;;;;7.93;2.30;;;24.40;99.90;;;;;;5054071;28;20217;-78
2023/03/12 06:45:47;;;;;;;7.68;2.17;;;24.40;99.90;;;;;;5053361;28;20727;-78
2023/03/12 06:48:18;;;;;;;12.18;2.30;;;24.40;99.90;;;;;;5053201;28;20544;-79
2023/03/12 06:50:49;;;;;;;10.63;2.30;;;24.40;99.90;;;;;;5047858;28;20198;-83
2023/03/12 06:53:20;;;;;;;6.85;2.28;;;24.30;99.90;;;;;;5054356;28;20217;-78
2023/03/12 06:55:53;;;;;;;9.52;2.60;;;24.30;99.90;;;;;;5052428;28;20385;-79
2023/03/12 06:58:25;;;;;;;9.07;2.42;;;24.30;99.90;;;;;;5058230;28;20208;-77
2023/03/12 07:00:58;;;;;;;11.48;2.40;;;24.20;99.90;;;;;;5056005;28;20202;-80
2023/03/12 07:03:29;;;;;;;8.05;2.25;;;24.20;99.90;;;;;;5048280;28;20206;-78
2023/03/12 07:06:01;;;;;;;10.50;2.63;;;24.20;99.90;;;;;;5053756;28;20547;-79
2023/03/12 07:08:32;;;;;;;7.10;2.25;;;24.20;99.90;;;;;;5053826;28;20198;-79
2023/03/12 07:11:03;;;;;;;10.50;2.30;;;24.10;99.90;;;;;;5053118;28;20650;-79
2023/03/12 07:13:34;;;;;;;10.43;2.13;;;24.20;99.90;;;;;;5054157;28;20677;-79
2023/03/12 07:16:08;;;;;;;8.80;2.50;;;24.20;99.90;;;;;;5054846;28;20194;-82
2023/03/12 07:18:39;;;;;;;12.35;3.25;;;24.20;99.90;;;;;;5050602;28;20194;-80
2023/03/12 07:21:10;;;;;;;8.90;2.40;;;24.20;99.90;;;;;;5055587;28;20205;-78
2023/03/12 07:23:41;;;;;;;8.85;3.10;;;24.10;99.90;;;;;;5064361;28;20211;-78
2023/03/12 07:26:12;;;;;;;8.45;2.10;;;24.10;99.90;;;;;;5069128;28;20195;-78
2023/03/12 07:28:44;;;;;;;6.97;2.35;;;24.10;99.90;;;;;;5067056;28;20644;-80
2023/03/12 07:31:17;;;;;;;10.05;2.35;;;24.10;99.90;;;;;;5052857;28;20217;-77
2023/03/12 07:33:48;;;;;;;8.27;2.40;;;24.10;99.90;;;;;;5042117;28;20237;-78
2023/03/12 07:36:19;;;;;;;10.18;2.70;;;24.00;99.90;;;;;;5052673;28;20197;-80
2023/03/12 07:38:50;;;;;;;8.10;2.30;;;24.00;99.90;;;;;;5061994;28;20194;-78
2023/03/12 07:41:21;;;;;;;7.35;2.00;;;24.00;99.90;;;;;;5054080;28;20197;-80
2023/03/12 07:43:53;;;;;;;7.82;2.42;;;23.90;99.90;;;;;;5055996;28;20212;-78
2023/03/12 07:46:26;;;;;;;9.00;2.50;;;23.90;99.90;;;;;;5048147;28;20202;-78
2023/03/12 07:48:57;;;;;;;7.95;2.20;;;23.90;99.90;;;;;;5054609;28;20194;-78
2023/03/12 07:51:28;;;;;;;9.38;2.22;;;23.90;99.90;;;;;;5056096;28;20193;-79
2023/03/12 07:53:59;;;;;;;6.35;2.10;;;23.90;99.90;;;;;;5053365;28;20228;-78
2023/03/12 07:56:31;;;;;;;8.18;2.35;;;23.90;99.90;;;;;;5054222;28;20201;-80
2023/03/12 07:59:02;;;;;;;14.93;2.13;;;23.80;99.90;;;;;;5053869;28;20679;-80
2023/03/12 08:01:35;;;;;;;8.05;2.15;;;23.80;99.90;;;;;;5045538;28;20205;-79
2023/03/12 08:04:06;;;;;;;6.30;2.40;;;23.80;99.90;;;;;;5049344;28;20194;-80
2023/03/12 08:06:41;;;;;;;8.50;2.20;;;23.80;99.90;;;;;;5052847;28;20197;-80
2023/03/12 08:09:12;;;;;;;10.93;2.22;;;23.70;99.90;;;;;;5053074;28;20207;-80
2023/03/12 08:11:43;;;;;;;10.23;2.20;;;23.70;99.90;;;;;;5051922;28;20209;-77
2023/03/12 08:14:14;;;;;;;7.18;2.20;;;23.70;99.90;;;;;;5052722;28;20210;-79
2023/03/12 08:16:48;;;;;;;7.82;2.10;;;23.60;99.90;;;;;;5052124;28;20652;-79
2023/03/12 08:19:19;;;;;;;5.32;2.10;;;23.60;99.90;;;;;;5052806;28;20194;-79
2023/03/12 08:21:50;;;;;;;11.05;2.60;;;23.60;99.90;;;;;;5049925;28;20201;-81
2023/03/12 08:24:22;;;;;;;10.13;3.05;;;23.60;99.90;;;;;;5056915;28;20208;-77
2023/03/12 08:26:53;;;;;;;11.00;2.60;;;23.60;99.90;;;;;;5052617;28;20209;-78
2023/03/12 08:29:24;;;;;;;8.13;2.45;;;23.50;99.90;;;;;;5049481;28;20194;-80
2023/03/12 08:31:57;;;;;;;7.20;2.50;;;23.50;99.90;;;;;;5049778;28;20229;-77
2023/03/12 08:34:28;;;;;;;10.10;2.50;;;23.50;99.90;;;;;;5052615;28;20217;-78
2023/03/12 08:36:59;;;;;;;9.07;2.70;;;23.50;99.90;;;;;;5052152;28;20210;-84
2023/03/12 08:39:34;;;;;;;8.98;2.75;;;23.40;99.90;;;;;;5051328;28;20189;-80
2023/03/12 08:42:06;;;;;;;8.48;2.55;;;23.40;99.90;;;;;;5052906;28;20208;-78
2023/03/12 08:44:37;;;;;;;8.25;2.45;;;23.40;99.90;;;;;;5052596;28;20698;-79
2023/03/12 08:47:10;;;;;;;10.38;2.95;;;23.30;99.90;;;;;;5045548;28;20680;-79
2023/03/12 08:49:41;;;;;;;7.90;3.08;;;23.30;99.90;;;;;;5052341;28;20194;-81
2023/03/12 08:52:12;;;;;;;6.57;2.58;;;23.30;99.90;;;;;;5052050;28;20665;-81
2023/03/12 08:54:43;;;;;;;9.00;2.53;;;23.40;99.90;;;;;;5053317;28;20619;-82
2023/03/12 08:57:15;;;;;;;8.90;2.78;;;23.30;99.90;;;;;;5058632;28;20211;-81
2023/03/12 08:59:46;;;;;;;6.70;2.28;;;23.30;99.90;;;;;;5055181;28;20189;-80
2023/03/12 09:02:19;;;;;;;6.60;2.70;;;23.30;99.90;;;;;;5053149;28;20202;-82
2023/03/12 09:04:54;;;;;;;10.93;2.83;;;23.30;99.90;;;;;;5053073;28;20649;-79
2023/03/12 09:07:25;;;;;;;14.13;3.00;;;23.20;99.90;;;;;;5051935;28;20204;-80
2023/03/12 09:09:57;;;;;;;6.55;2.50;;;23.30;99.90;;;;;;5052728;28;20679;-79
2023/03/12 09:12:30;;;;;;;6.35;2.45;;;23.20;99.90;;;;;;5052214;28;20198;-77
2023/03/12 09:15:01;;;;;;;9.70;2.55;;;23.20;99.90;;;;;;5052379;28;20217;-79
2023/03/12 09:17:34;;;;;;;8.57;2.85;;;23.20;99.90;;;;;;5052497;28;20212;-79
2023/03/12 09:20:08;;;;;;;10.05;3.15;;;23.20;99.90;;;;;;5051825;28;20201;-80
2023/03/12 09:22:39;;;;;;;8.32;2.40;;;23.20;99.90;;;;;;5045948;28;20193;-80
2023/03/12 09:25:12;;;;;;;5.50;2.28;;;23.20;99.90;;;;;;5052543;28;20559;-76
2023/03/12 09:27:44;;;;;;;7.10;2.55;;;23.20;99.90;;;;;;5044933;28;20201;-80
2023/03/12 09:30:17;;;;;;;11.27;2.60;;;23.20;99.90;;;;;;5052006;28;20229;-81
2023/03/12 09:32:50;;;;;;;10.43;2.80;;;23.20;99.90;;;;;;5056310;28;20557;-79
2023/03/12 09:35:21;;;;;;;9.02;2.33;;;23.20;99.90;;;;;;5052223;28;20210;-79
2023/03/12 09:37:53;;;;;;;4.57;2.30;;;23.10;99.90;;;;;;5051727;28;20213;-80
2023/03/12 09:40:27;;;;;;;6.25;2.28;;;23.10;99.90;;;;;;5051379;28;20675;-81
2023/03/12 09:43:02;;;;;;;9.30;2.53;;;23.10;99.90;;;;;;5052095;28;20201;-81
2023/03/12 09:45:40;;;;;;;9.02;2.38;;;23.10;99.90;;;;;;5052072;28;20208;-82
2023/03/12 09:48:19;;;;;;;8.15;3.15;;;23.10;99.90;;;;;;5052266;28;20198;-81
2023/03/12 09:50:51;;;;;;;8.85;2.80;;;23.10;99.90;;;;;;5052807;28;20201;-80
2023/03/12 09:53:30;;;;;;;8.25;2.35;;;23.10;99.90;;;;;;5049565;28;20200;-80
2023/03/12 09:56:07;;;;;;;7.57;2.17;;;23.10;99.90;;;;;;5054370;28;20227;-80
2023/03/12 09:58:43;;;;;;;8.23;2.80;;;23.00;99.90;;;;;;5050670;28;20193;-79
2023/03/12 10:01:40;;;;;;;7.45;2.50;;;23.00;99.90;;;;;;5051465;28;20275;-80
2023/03/12 10:04:30;;;;;;;6.43;2.42;;;23.00;99.90;;;;;;5058867;28;20215;-78
2023/03/12 10:07:10;;;;;;;7.35;2.22;;;22.90;99.90;;;;;;5056091;28;20574;-80
2023/03/12 10:10:03;;;;;;;7.53;2.60;;;22.90;99.90;;;;;;5045003;28;20212;-80
2023/03/12 10:12:42;;;;;;;9.05;2.72;;;22.90;99.90;;;;;;5055247;28;20679;-80
2023/03/12 10:15:24;;;;;;;9.43;2.90;;;22.90;99.90;;;;;;5056674;28;20213;-79
2023/03/12 10:18:09;;;;;;;7.05;2.33;;;22.90;99.90;;;;;;5057304;28;20198;-80
2023/03/12 10:21:05;;;;;;;7.00;2.30;;;22.90;99.90;;;;;;5060344;28;20193;-81
2023/03/12 10:23:51;;;;;;;5.38;2.40;;;22.90;99.90;;;;;;5047301;28;20198;-81
2023/03/12 10:26:25;;;;;;;5.03;2.15;;;22.90;99.90;;;;;;5051726;28;20201;-83
2023/03/12 10:29:00;;;;;;;6.43;2.58;;;22.90;99.90;;;;;;5049158;28;20203;-80
2023/03/12 10:31:36;;;;;;;6.30;2.50;;;22.90;99.90;;;;;;5055246;28;20217;-80
2023/03/12 10:34:19;;;;;;;7.57;2.53;;;22.80;99.90;;;;;;5045498;28;20679;-80
2023/03/12 10:36:52;;;;;;;6.45;2.25;;;22.90;99.90;;;;;;5055804;28;20189;-80
2023/03/12 10:39:23;;;;;;;9.13;2.30;;;22.90;99.90;;;;;;5055884;28;20197;-81
2023/03/12 10:41:58;;;;;;;13.63;2.40;;;22.80;99.90;;;;;;5053899;28;20204;-81
2023/03/12 10:44:29;;;;;;;9.02;2.65;;;22.80;99.90;;;;;;5056082;28;20212;-82
2023/03/12 10:47:27;;;;;;;7.50;2.22;;;22.80;99.90;;;;;;5054486;28;20201;-81
2023/03/12 10:50:15;;;;;;;12.25;2.85;;;22.80;99.90;;;;;;5056217;28;20202;-78
2023/03/12 10:52:49;;;;;;;6.47;2.22;;;22.80;99.90;;;;;;5057953;28;20228;-80
2023/03/12 10:55:28;;;;;;;6.95;2.40;;;22.90;99.90;;;;;;5057113;28;20218;-81
2023/03/12 10:58:00;;;;;;;11.15;2.67;;;22.80;99.90;;;;;;5054469;28;20212;-80
2023/03/12 11:00:33;;;;;;;11.02;2.60;;;22.80;99.90;;;;;;5055675;28;20679;-80
2023/03/12 11:03:06;;;;;;;5.63;2.10;;;22.80;99.90;;;;;;5053975;28;20204;-77
2023/03/12 11:05:38;;;;;;;4.90;2.38;;;22.80;99.90;;;;;;5054759;28;20209;-81
2023/03/12 11:08:25;;;;;;;6.05;2.40;;;22.80;99.90;;;;;;5053218;28;20204;-80
2023/03/12 11:10:58;;;;;;;4.55;2.13;;;22.80;99.90;;;;;;5053532;28;20303;-82
2023/03/12 11:13:32;;;;;;;5.03;2.00;;;22.80;99.90;;;;;;5057005;28;20565;-80
2023/03/12 11:16:05;;;;;;;7.78;2.28;;;22.80;99.90;;;;;;5055319;28;20699;-81
2023/03/12 11:18:39;;;;;;;7.55;2.40;;;22.70;99.90;;;;;;5058495;28;20194;-79
2023/03/12 11:21:19;;;;;;;7.38;2.47;;;22.80;99.90;;;;;;5055292;28;20813;-79
2023/03/12 11:24:09;;;;;;;9.95;2.53;;;22.70;99.90;;;;;;5054552;28;20201;-79
2023/03/12 11:26:51;;;;;;;5.07;1.98;;;22.70;99.90;;;;;;5058507;28;20208;-79
2023/03/12 11:29:29;;;;;;;7.60;2.30;;;22.70;99.90;;;;;;5067936;28;20193;-81
2023/03/12 11:32:06;;;;;;;8.30;2.30;;;22.70;99.90;;;;;;5057008;28;20209;-79
2023/03/12 11:34:39;;;;;;;9.05;2.38;;;22.70;99.90;;;;;;5054737;28;20193;-80
2023/03/12 11:37:16;;;;;;;8.23;2.40;;;22.70;99.90;;;;;;5041605;28;20189;-78
2023/03/12 11:40:15;;;;;;;5.45;2.20;;;22.70;99.90;;;;;;5055125;28;20649;-79
2023/03/12 11:43:14;;;;;;;5.60;2.38;;;22.70;99.90;;;;;;5057022;28;20684;-80
2023/03/12 11:45:56;;;;;;;6.20;2.10;;;22.70;99.90;;;;;;5070216;28;20570;-80
2023/03/12 11:48:33;;;;;;;7.38;2.20;;;22.70;99.90;;;;;;5054597;28;20640;-79
2023/03/12 11:51:15;;;;;;;7.65;2.00;;;22.70;99.90;;;;;;5054963;28;20190;-79
2023/03/12 11:54:09;;;;;;;6.22;2.15;;;22.60;99.90;;;;;;5056003;28;20629;-80
2023/03/12 11:56:46;;;;;;;8.15;2.28;;;22.60;99.90;;;;;;5047922;28;20226;-80
2023/03/12 11:59:37;;;;;;;8.63;2.22;;;22.70;99.90;;;;;;5053751;28;20200;-82
2023/03/12 12:02:24;;;;;;;7.13;2.00;;;22.60;99.90;;;;;;5050427;28;20189;-81
2023/03/12 12:05:24;;;;;;;9.73;2.13;;;22.60;99.90;;;;;;5054725;28;20228;-81
2023/03/12 12:08:10;;;;;;;9.23;2.03;;;22.60;99.90;;;;;;5055793;28;20217;-80
2023/03/12 12:10:50;;;;;;;6.10;2.10;;;22.60;99.90;;;;;;5054561;28;20186;-79
2023/03/12 12:13:29;;;;;;;7.22;2.00;;;22.60;99.90;;;;;;5054185;28;20287;-79
2023/03/12 12:16:09;;;;;;;6.80;2.13;;;22.60;99.90;;;;;;5053175;28;20312;-80
2023/03/12 12:19:00;;;;;;;5.20;2.30;;;22.60;99.90;;;;;;5053639;28;20204;-80
2023/03/12 12:21:56;;;;;;;7.72;2.10;;;22.60;99.90;;;;;;5043947;28;20594;-79
2023/03/12 12:24:40;;;;;;;9.98;2.15;;;22.50;99.90;;;;;;5053588;28;20216;-79
2023/03/12 12:27:21;;;;;;;7.45;2.00;;;22.50;99.90;;;;;;5050338;28;20659;-81
2023/03/12 12:30:19;;;;;;;6.95;1.90;;;22.50;99.90;;;;;;5074375;28;20629;-81
2023/03/12 12:33:14;;;;;;;8.63;1.95;;;22.50;99.90;;;;;;5073874;28;20232;-80
2023/03/12 12:35:45;;;;;;;7.57;2.20;;;22.60;99.90;;;;;;5061657;28;20260;-82
2023/03/12 12:38:22;;;;;;;11.63;2.20;;;22.60;99.90;;;;;;5062486;28;20193;-80
2023/03/12 12:40:57;;;;;;;9.93;2.47;;;22.50;99.90;;;;;;5055664;28;20204;-82
2023/03/12 12:43:32;;;;;;;9.68;2.10;;;22.50;99.90;;;;;;5054681;28;20194;-79
2023/03/12 12:46:06;;;;;;;8.73;2.15;;;22.50;99.90;;;;;;5052462;28;20197;-83
2023/03/12 12:48:41;;;;;;;5.20;1.80;;;22.50;99.90;;;;;;5062015;28;20192;-79
2023/03/12 12:51:14;;;;;;;5.30;1.80;;;22.50;99.90;;;;;;5053555;28;20200;-79
2023/03/12 12:53:51;;;;;;;6.55;1.85;;;22.50;99.90;;;;;;5053667;28;20564;-80
2023/03/12 12:56:27;;;;;;;4.63;1.90;;;22.50;99.90;;;;;;5072776;28;20223;-80
2023/03/12 12:59:24;;;;;;;6.28;1.90;;;22.50;99.90;;;;;;5057512;28;20683;-79
2023/03/12 13:01:58;;;;;;;5.22;2.08;;;22.50;99.90;;;;;;5064881;28;20205;-79
2023/03/12 13:04:33;;;;;;;6.15;2.10;;;22.50;99.90;;;;;;5054162;28;20213;-80
2023/03/12 13:07:25;;;;;;;9.13;1.75;;;22.50;99.90;;;;;;5057140;28;20208;-80
2023/03/12 13:09:58;;;;;;;5.07;2.00;;;22.50;99.90;;;;;;5053913;28;20221;-80
2023/03/12 13:12:33;;;;;;;8.13;2.17;;;22.50;99.90;;;;;;5054351;28;20213;-79
2023/03/12 13:15:34;;;;;;;8.35;2.00;;;22.50;99.90;;;;;;5055608;28;20247;-79
2023/03/12 13:18:19;;;;;;;6.72;2.00;;;22.50;99.90;;;;;;5051494;28;20197;-79
2023/03/12 13:21:14;;;;;;;9.82;2.10;;;22.50;99.90;;;;;;5054736;28;20338;-79
2023/03/12 13:23:57;;;;;;;6.25;1.90;;;22.50;99.90;;;;;;5050288;28;20198;-80